x

Neah Bay, - 6nm North Of Cape Flattery, Wa (traffic Separation Lighted Buoy) (46087) Wave Buoy

3:20pm - Wed 31st Aug 2016 All times are PDT. -7 hours from GMT.

  • Sig Wave height 2.6ft
  • Swell Direction
  • Peak Period 7s
  • Average Period 6s
  • Wind
    2mph
  • Sea Temp 53°f
  • Air Temp 56°f
  • Sea Pressure 1014.3mb
  • Neah Bay, - 6nm North Of Cape Flattery, Wa     (traffic Separation Lighted Buoy)
  • Neah Bay, - 6nm North Of Cape Flattery, Wa     (traffic Separation Lighted Buoy)

More Historic Weather Station data

Upgrade to MSW Pro to gain access to the past 30 days of data for over 8000 Wavebouys and Weather Stations around the globe.

Join Pro

Comparision Forecast

View Surf forecast
   
Wed 08/31 3:20pm 2.5ft 7s 6s 2
mph
1014.3mb 53f 56f
2:50pm 2.5ft 6s 6s 2 4 mph 1014.4mb 53f 57f
2:20pm 2.5ft 7s 6s  -  2 mph 1014.4mb 53f 56f
1:50pm 2.5ft 6s 5s 2 4 mph 1014.4mb 53f 56f
1:20pm 3ft 7s 5s 4 7 mph 1014.2mb 53f 56f
12:50pm 3ft 7s 6s  -  2 mph 1014.3mb 53f 56f
12:20pm 2.5ft 7s 5s  -  2 mph 1014.1mb 53f 56f
11:50am 3ft 7s 6s 2 4 mph 1014.1mb 53f 56f
11:20am 2.5ft 7s 6s 4 7 mph 1013.9mb 53f 55f
10:50am 3ft 7s 6s 4 7 mph 1013.9mb 53f 55f
10:20am 3ft 6s 6s 4 7 mph 1013.7mb 54f 55f
9:50am 3ft 7s 6s 4 7 mph 1013.6mb 53f 55f
9:20am 3ft 7s 6s 7
mph
1013.7mb 53f 55f
8:50am 3.5ft 7s 6s 7 9 mph 1013.6mb 53f 55f
8:20am 3ft 7s 6s 4 7 mph 1013.4mb 53f 55f
7:50am 3.5ft 7s 7s 4 7 mph 1013.3mb 53f 55f
7:20am 4ft 8s 7s 4 7 mph 1013.2mb 53f 55f
6:50am 4ft 7s 7s 7 9 mph 1013.1mb 53f 55f
6:20am 4ft 8s 7s 4
mph
1013.1mb 53f 55f
5:50am 4ft 8s 6s 4 7 mph 1013mb 53f 55f
5:20am 4ft 7s 6s 4 7 mph 1013mb 53f 55f
4:50am 4.5ft 8s 6s 4 7 mph 1012.9mb 53f 55f
4:20am 4ft 7s 6s 9 11 mph 1012.8mb 53f 56f
3:50am 3.5ft 7s 6s 13
mph
1012.8mb 53f 56f
3:20am 4.5ft 7s 6s 13 16 mph 1012.8mb 53f 56f
2:50am 4.5ft 7s 6s 13 16 mph 1012.7mb 53f 56f
2:20am 4.5ft 7s 6s 16 18 mph 1012.7mb 53f 56f
1:50am 4ft 7s 6s 13 16 mph 1013mb 54f 56f
1:20am 4ft 7s 6s 13 16 mph 1013.2mb 54f 56f
12:50am 4.5ft 7s 6s 11 16 mph 1013.3mb 53f 56f
12:20am 3.5ft 6s 6s 11
mph
1013.5mb 53f 56f
Tue 08/30 11:50pm 4ft 6s 6s 11 13 mph 1013.5mb 53f 57f
11:20pm 3.5ft 7s 6s 9 11 mph 1013.8mb 54f 56f
10:50pm 3.5ft 6s 6s 11 13 mph 1014mb 55f 57f
10:20pm 3.5ft 7s 6s 4 7 mph 1014.5mb 55f 58f
9:50pm 3.5ft 7s 6s 9 13 mph 1014.6mb 54f 60f
9:20pm 3.5ft 7s 6s 11 16 mph 1014.5mb 54f 59f
8:50pm 3.5ft 7s 6s 13 16 mph 1014.6mb 54f 58f
8:20pm 3.5ft 7s 6s 13 16 mph 1014.6mb 54f 59f
7:50pm 3ft 7s 6s 4 7 mph 1014.4mb 54f 58f
7:20pm 3.5ft 7s 6s 2 4 mph 1014.4mb 54f 58f
6:50pm 3ft 7s 5s 2 4 mph 1014.4mb 54f 59f
6:20pm 3.5ft 6s 5s 7 9 mph 1014.4mb 54f 59f
5:50pm 3.5ft 7s 6s 7 9 mph 1014.6mb 54f 59f
5:20pm 3.5ft 6s 5s 2 4 mph 1014.8mb 54f 59f
4:50pm 3.5ft 7s 6s 2 4 mph 1014.8mb 54f 59f
4:20pm 3.5ft 7s 5s 4 7 mph 1014.9mb 54f 58f
3:50pm 3.5ft 6s 5s 7 9 mph 1014.8mb 54f 58f
3:20pm 4ft 6s 6s 9 13 mph 1014.7mb 54f 57f
2:50pm 4ft 6s 6s 4 7 mph 1014.8mb 54f 57f
2:20pm 4.5ft 6s 5s 4 7 mph 1014.9mb 54f 57f
1:50pm 4.5ft 6s 5s 7 9 mph 1015mb 53f 56f
1:20pm 4.5ft 6s 5s 11 16 mph 1015.1mb 53f 56f
12:50pm 4.5ft 6s 5s 13 18 mph 1015.2mb 54f 56f
12:20pm 4ft 6s 5s 13 18 mph 1015.3mb 54f 57f
11:50am 4ft 5s 5s 7 9 mph 1015.3mb 54f 56f
11:20am 4ft 6s 6s 7 9 mph 1015.3mb 54f 56f
10:50am 4ft 6s 6s 7 11 mph 1015.2mb 54f 56f
10:20am 4ft 5s 6s 4 7 mph 1015.3mb 54f 57f
9:50am 3.5ft 8s 6s 2 4 mph 1015.4mb 54f 60f
9:20am 4ft 8s 6s 2 4 mph 1015.4mb 54f 58f
8:50am 3.5ft 8s 6s 7
mph
1015.6mb 54f 57f
8:20am 3.5ft 8s 7s 2 7 mph 1015.7mb 53f 55f
7:50am 3.5ft 9s 7s 7 9 mph 1015.6mb 53f 55f
7:20am 3.5ft 8s 7s 7 9 mph 1015.6mb 54f 55f
6:50am 3.5ft 6s 7s 7 9 mph 1015.7mb 54f 57f
6:20am 3ft 9s 7s 9 11 mph 1015.6mb 54f 56f
5:50am 3.5ft 9s 6s 9 11 mph 1015.5mb 54f 56f
5:20am 3.5ft 9s 6s 9 11 mph 1015.6mb 54f 56f
4:50am 3.5ft 8s 6s 9 11 mph 1015.8mb 54f 56f
4:20am 3.5ft 9s 6s 7 9 mph 1015.9mb 54f 56f
3:50am 3.5ft 9s 6s 7 9 mph 1016mb 54f 56f
3:20am 3ft 9s 6s 7 9 mph 1016mb 54f 57f
2:50am 3.5ft 9s 6s 7 9 mph 1016.1mb 54f 57f
1:50am 3.5ft 8s 6s 4 7 mph 1016mb 54f 57f
1:20am 3.5ft 8s 5s 4 7 mph 1015.9mb 54f 59f
12:50am 3.5ft 9s 5s 7 9 mph 1015.8mb 54f 58f
12:20am 3.5ft 8s 6s 9 11 mph 1015.9mb 52f 58f
Mon 08/29 11:50pm 3.5ft 9s 6s 4 9 mph 1015.7mb 53f 57f
11:20pm 3.5ft 9s 6s 7 9 mph 1015.8mb 54f 55f
10:50pm 3.5ft 10s 6s 2 7 mph 1016mb 54f 56f
10:20pm 3.5ft 9s 6s 4 7 mph 1016mb 54f 58f
9:50pm 4.5ft 10s 7s 7 9 mph 1015.9mb 54f 60f
9:20pm 4ft 9s 7s 7 9 mph 1015.9mb 54f 58f
8:50pm 4ft 9s 7s 7 11 mph 1015.6mb 54f 58f
8:20pm 4.5ft 9s 7s 9 11 mph 1016mb 54f 59f
7:50pm 4.5ft 9s 7s 9
mph
1015.7mb 54f 58f
7:20pm 4.5ft 9s 7s 9 11 mph 1015.8mb 54f 58f
6:50pm 4.5ft 9s 7s 9 11 mph 1016.1mb 54f 57f
6:20pm 4ft 9s 7s 9 11 mph 1016.2mb 54f 56f
5:50pm 3.5ft 8s 7s 13
mph
1016.2mb 54f 56f
5:20pm 4ft 9s 7s 9 13 mph 1016.3mb 54f 56f
4:50pm 3.5ft 9s 7s 9 11 mph 1016.5mb 54f 56f
4:20pm 3ft 9s 6s 9 11 mph 1016.6mb 54f 57f
3:50pm 3.5ft 8s 6s 11 13 mph 1016.5mb 54f 56f
3:20pm 3ft 9s 6s 9 11 mph 1016.5mb 54f 57f
2:50pm 3ft 8s  -  13
mph
1016.6mb 54f 56f
2:20pm 3ft 8s 5s 7 11 mph 1016.8mb 55f 56f
1:50pm 3ft 8s 6s 9 11 mph 1016.8mb 55f 56f
1:20pm 2.5ft 8s 5s 4 7 mph 1016.8mb 55f 57f
12:50pm 2.5ft 8s 6s 2 7 mph 1016.8mb 54f 57f
12:20pm 2.5ft 8s 6s 2 4 mph 1016.7mb 54f 56f
11:50am 3.5ft 7s 6s 4
mph
1016.8mb 54f 55f
11:20am 3ft 8s 6s 7
mph
1016.8mb 54f 55f
10:50am 3ft 8s 6s 7 9 mph 1016.9mb 54f 55f
10:20am 3ft 8s 6s 9 11 mph 1016.7mb 53f 55f
9:50am 2.5ft 7s 6s 7 9 mph 1016.8mb 53f 55f
9:20am 3ft 8s 7s 9
mph
1016.9mb 53f 55f
8:50am 2.5ft 7s 7s 11 13 mph 1017.1mb 53f 54f
8:20am 3ft 8s 7s 11 13 mph 1017.3mb 53f 54f
7:50am 2.5ft 8s 7s 11 13 mph 1017.2mb 53f 54f
7:20am 2.5ft 8s 7s 11
mph
1017.2mb 53f 54f
6:50am 2.5ft 8s 7s 9 11 mph 1017.5mb 53f 54f
6:20am 2ft 8s 7s 7 9 mph 1017.5mb 53f 54f
5:50am 2.5ft 8s 7s 11
mph
1017.4mb 53f 54f
5:20am 2.5ft 8s 7s 7 9 mph 1017.7mb 53f 54f
4:50am 2.5ft 8s 7s 11
mph
1017.6mb 53f 55f
4:20am 2ft 8s 7s 2 4 mph 1017.8mb 53f 53f
3:50am 2ft 8s 7s 4
mph
1017.7mb 53f 54f
3:20am 2ft 8s 7s 4
mph
1017.6mb 53f 53f
2:50am 2ft 8s 7s 4
mph
1017.7mb 53f 54f
2:20am 2ft 8s 7s 7
mph
1017.6mb 53f 55f
1:50am 2ft 8s 7s 7 9 mph 1017.7mb 53f 55f
1:20am 1.6ft 15s 6s 7 9 mph 1017.6mb 52f 55f
12:50am 1.6ft 8s 6s 4
mph
1017.7mb 51f 54f
12:20am 1.6ft 14s 6s 7
mph
1017.6mb 51f 53f
Sun 08/28 11:50pm 1.6ft 8s 6s 4 7 mph 1017.5mb 51f 53f
11:20pm 2ft 7s 6s 2 4 mph 1017.7mb 51f 54f
10:50pm 2ft 7s 6s 2
mph
1017.6mb 51f 54f
10:20pm 2ft 8s 7s 2
mph
1017.6mb 52f 53f
9:50pm 2ft 8s 7s 7 9 mph 1017.2mb 52f 54f
9:20pm 2ft 8s 7s 4
mph
1017.6mb 53f 54f
8:50pm 2ft 8s 7s 7 9 mph 1017.5mb 53f 54f
8:20pm 2ft 8s 7s 9
mph
1017.6mb 54f 54f
7:50pm 2.5ft 8s 7s 9 11 mph 1017.8mb 54f 54f
7:20pm 2.5ft 8s 7s 9
mph
1018.1mb 54f 54f
6:50pm 2.5ft 8s 7s 9 11 mph 1018.1mb 55f 55f
6:20pm 2.5ft 8s 7s 11
mph
1018.3mb 55f 55f
5:50pm 2.5ft 8s 7s 9
mph
1018.5mb 54f 56f
5:20pm 2.5ft 8s 7s 2 4 mph 1018.4mb 54f 55f
4:50pm 2.5ft 8s 7s 4
mph
1018.4mb 54f 56f
4:20pm 2.5ft 8s 7s 4
mph
1018.6mb 54f 56f
3:50pm 3ft 8s 7s 7
mph
1018.7mb 54f 56f
3:20pm 3ft 8s 7s 4 7 mph 1018.7mb 55f 56f
2:50pm 2.5ft 8s 7s 4
mph
1018.9mb 54f 56f
2:20pm 2.5ft 8s 7s 4
mph
1018.8mb 54f 58f
1:50pm 2.5ft 8s 7s 4 7 mph 1018.8mb 54f 55f
1:20pm 2.5ft 8s 6s 4 7 mph 1018.8mb 54f 56f
12:50pm 2.5ft 8s 6s 4 7 mph 1018.6mb 54f 56f
12:20pm 2.5ft 8s 6s 7
mph
1018.5mb 54f 55f
11:50am 3ft 8s 6s 2 4 mph 1018.4mb 54f 55f
11:20am 3ft 8s 6s 4 7 mph 1018.1mb 54f 55f
10:50am 3ft 8s 5s 4
mph
1018.1mb 54f 55f
10:20am 3.5ft 8s 6s 2 4 mph 1018.1mb 54f 55f
9:50am 3.5ft 8s 6s 4
mph
1017.9mb 54f 55f
9:20am 3.5ft 8s 6s 4 7 mph 1017.8mb 54f 54f
8:50am 3.5ft 8s 6s 4
mph
1017.7mb 54f 54f
8:20am 4ft 7s 6s 7
mph
1017.6mb 53f 54f
7:50am 4ft 7s 7s 4
mph
1017.7mb 54f 55f
7:20am 4ft 7s 6s 2 4 mph 1017.7mb 54f 55f
6:50am 4ft 8s 7s 2 4 mph 1017.5mb 53f 55f
6:20am 4.5ft 8s 7s 4 7 mph 1017mb 53f 55f
5:50am 3.5ft 8s 7s 4
mph
1017mb 53f 55f
5:20am 4ft 8s 7s 2 4 mph 1016.9mb 53f 55f
4:50am 3.5ft 8s 7s 2 4 mph 1016.7mb 53f 55f
4:20am 3.5ft 8s 7s 4
mph
1017mb 53f 54f
3:50am 4.5ft 8s 7s 2 4 mph 1016.7mb 53f 54f
3:20am 4.5ft 8s 7s 2
mph
1016.6mb 53f 55f
2:50am 4.5ft 8s 7s 2
mph
1016.6mb 53f 55f
2:20am 4.5ft 8s 6s  -  2 mph 1016.4mb 53f 55f
1:50am 4.5ft 8s 6s  -  2 mph 1016.2mb 53f 55f
1:20am 4.5ft 8s 6s 2 4 mph 1016.3mb 53f 55f
12:50am 4.5ft 8s 6s 4
mph
1016mb 53f 55f
12:20am 4.5ft 8s 6s 2 4 mph 1015.8mb 53f 55f
Sat 08/27 11:50pm 4.5ft 7s 6s 7
mph
1015.6mb 53f 56f